Time;durP1;ratioP1;P1;durP2;ratioP2;P2;SDS_P1;SDS_P2;PMS_P1;PMS_P2;Temp;Humidity;BMP_temperature;BMP_pressure;BME280_temperature;BME280_humidity;BME280_pressure;Samples;Min_cycle;Max_cycle;Signal;HPM_P1;HPM_P2
2023/02/15 00:00:43;;;;;;;29.95;20.70;;;7.50;99.90;;;;;;5036088;28;20237;-80
2023/02/15 00:03:10;;;;;;;26.30;20.27;;;7.50;99.90;;;;;;5047637;28;20670;-76
2023/02/15 00:05:37;;;;;;;32.13;20.77;;;7.50;99.90;;;;;;5036651;28;20304;-76
2023/02/15 00:08:06;;;;;;;22.25;19.02;;;7.50;99.90;;;;;;5048323;28;20698;-81
2023/02/15 00:10:34;;;;;;;28.02;19.55;;;7.50;99.90;;;;;;5043075;28;20225;-80
2023/02/15 00:13:02;;;;;;;28.08;19.65;;;7.50;99.90;;;;;;5040083;28;20236;-77
2023/02/15 00:15:32;;;;;;;23.85;17.60;;;7.50;99.90;;;;;;5052267;28;20225;-79
2023/02/15 00:18:01;;;;;;;33.65;21.25;;;7.50;99.90;;;;;;5042205;28;20304;-76
2023/02/15 00:20:28;;;;;;;29.52;21.25;;;7.50;99.90;;;;;;5032894;28;20217;-76
2023/02/15 00:22:56;;;;;;;25.73;18.35;;;7.50;99.90;;;;;;5037671;28;20227;-76
2023/02/15 00:25:24;;;;;;;25.35;19.48;;;7.50;99.90;;;;;;5034153;28;20256;-80
2023/02/15 00:27:51;;;;;;;24.63;18.25;;;7.40;99.90;;;;;;5043796;28;20233;-76
2023/02/15 00:30:19;;;;;;;29.13;20.42;;;7.40;99.90;;;;;;5038170;28;20225;-76
2023/02/15 00:32:49;;;;;;;29.63;20.23;;;7.40;99.90;;;;;;5039323;28;20246;-79
2023/02/15 00:35:16;;;;;;;29.95;21.67;;;7.40;99.90;;;;;;5041007;28;20241;-76
2023/02/15 00:37:45;;;;;;;32.10;21.95;;;7.40;99.90;;;;;;5046575;28;20225;-79
2023/02/15 00:40:13;;;;;;;33.80;22.45;;;7.40;99.90;;;;;;5037621;28;20229;-76
2023/02/15 00:42:43;;;;;;;30.27;21.38;;;7.30;99.90;;;;;;5042088;28;20251;-79
2023/02/15 00:45:11;;;;;;;26.38;21.33;;;7.30;99.90;;;;;;5045136;28;20220;-79
2023/02/15 00:47:39;;;;;;;28.98;21.90;;;7.30;99.90;;;;;;5040138;28;20547;-79
2023/02/15 00:50:07;;;;;;;28.80;20.65;;;7.30;99.90;;;;;;5041750;28;20675;-79
2023/02/15 00:52:35;;;;;;;27.80;21.10;;;7.30;99.90;;;;;;5041750;28;20237;-79
2023/02/15 00:55:05;;;;;;;28.77;21.67;;;7.30;99.90;;;;;;5048311;28;20250;-76
2023/02/15 00:57:32;;;;;;;32.95;23.38;;;7.20;99.90;;;;;;5037974;28;20218;-79
2023/02/15 01:00:03;;;;;;;29.67;21.58;;;7.20;99.90;;;;;;5034555;28;20226;-79
2023/02/15 01:02:32;;;;;;;29.02;21.13;;;7.20;99.90;;;;;;5045895;28;20220;-77
2023/02/15 01:04:59;;;;;;;33.17;22.55;;;7.20;99.90;;;;;;5054499;28;20259;-79
2023/02/15 01:07:26;;;;;;;30.20;23.23;;;7.20;99.90;;;;;;5054219;28;20228;-79
2023/02/15 01:09:53;;;;;;;32.25;23.75;;;7.10;99.90;;;;;;5054375;28;20220;-79
2023/02/15 01:12:20;;;;;;;34.75;23.95;;;7.10;99.90;;;;;;5033133;28;20225;-77
2023/02/15 01:14:47;;;;;;;36.30;25.08;;;7.10;99.90;;;;;;5033525;28;20232;-79
2023/02/15 01:17:16;;;;;;;34.90;23.85;;;7.10;99.90;;;;;;5043222;28;20255;-79
2023/02/15 01:19:45;;;;;;;30.10;24.35;;;7.10;99.90;;;;;;5051166;28;20229;-80
2023/02/15 01:22:14;;;;;;;30.25;23.90;;;7.10;99.90;;;;;;5051474;28;20285;-80
2023/02/15 01:24:41;;;;;;;38.55;27.98;;;7.00;99.90;;;;;;5052549;28;20255;-76
2023/02/15 01:27:08;;;;;;;34.45;25.08;;;7.00;99.90;;;;;;5052833;28;20671;-76
2023/02/15 01:29:35;;;;;;;31.15;22.73;;;7.00;99.90;;;;;;5052646;28;20228;-76
2023/02/15 01:32:03;;;;;;;35.10;26.35;;;6.90;99.90;;;;;;5053557;28;20236;-79
2023/02/15 01:34:31;;;;;;;36.03;25.83;;;7.00;99.90;;;;;;5053918;28;20229;-76
2023/02/15 01:37:02;;;;;;;36.55;25.20;;;6.90;99.90;;;;;;5054026;28;20220;-76
2023/02/15 01:39:29;;;;;;;33.75;22.63;;;6.90;99.90;;;;;;5053322;28;20236;-79
2023/02/15 01:41:56;;;;;;;33.55;23.55;;;6.90;99.90;;;;;;5053184;28;20225;-79
2023/02/15 01:44:50;;;;;;;40.05;27.40;;;6.90;99.90;;;;;;5053581;28;20251;-76
2023/02/15 01:47:21;;;;;;;33.28;25.25;;;6.90;99.90;;;;;;5053609;28;20274;-77
2023/02/15 01:49:59;;;;;;;37.70;25.10;;;6.90;99.90;;;;;;5053801;28;20694;-79
2023/02/15 01:52:27;;;;;;;37.72;27.02;;;6.90;99.90;;;;;;5053432;28;20562;-80
2023/02/15 01:54:54;;;;;;;40.95;27.45;;;6.90;99.90;;;;;;5053621;28;20216;-79
2023/02/15 01:57:26;;;;;;;42.88;27.70;;;6.80;99.90;;;;;;5052222;28;20290;-79
2023/02/15 01:59:57;;;;;;;37.88;27.83;;;6.80;99.90;;;;;;5053146;28;20235;-79
2023/02/15 02:02:27;;;;;;;38.05;27.33;;;6.80;99.90;;;;;;5053031;28;20235;-76
2023/02/15 02:05:02;;;;;;;34.42;25.13;;;6.80;99.90;;;;;;5053590;28;20247;-76
2023/02/15 02:07:34;;;;;;;35.97;26.02;;;6.80;99.90;;;;;;5052941;28;20682;-79
2023/02/15 02:10:03;;;;;;;37.33;26.67;;;6.70;99.90;;;;;;5053909;28;20300;-76
2023/02/15 02:12:30;;;;;;;40.17;25.30;;;6.70;99.90;;;;;;5053229;28;20233;-76
2023/02/15 02:14:58;;;;;;;35.50;24.67;;;6.70;99.90;;;;;;5053248;28;20674;-76
2023/02/15 02:17:39;;;;;;;41.92;28.17;;;6.70;99.90;;;;;;5053459;28;20678;-79
2023/02/15 02:20:31;;;;;;;41.15;27.85;;;6.60;99.90;;;;;;5053475;28;20318;-76
2023/02/15 02:23:29;;;;;;;41.75;26.17;;;6.60;99.90;;;;;;5053623;28;20227;-76
2023/02/15 02:26:31;;;;;;;38.38;26.15;;;6.60;99.90;;;;;;5052957;28;20216;-80
2023/02/15 02:29:36;;;;;;;39.08;25.80;;;6.60;99.90;;;;;;5052745;28;20224;-79
2023/02/15 02:35:34;;;;;;;38.60;26.48;;;6.50;99.90;;;;;;5122558;27;21028;-75
2023/02/15 02:38:07;;;;;;;36.63;25.08;;;6.50;99.90;;;;;;5109917;28;20308;-75
2023/02/15 02:40:43;;;;;;;37.97;27.35;;;6.50;99.90;;;;;;5111045;27;20231;-77
2023/02/15 02:43:20;;;;;;;41.20;27.70;;;6.50;99.90;;;;;;5110499;27;20564;-76
2023/02/15 02:45:55;;;;;;;38.13;26.48;;;6.50;99.90;;;;;;5111249;27;20222;-79
2023/02/15 02:48:27;;;;;;;39.53;27.73;;;6.50;99.90;;;;;;5110544;27;20279;-77
2023/02/15 02:50:56;;;;;;;37.05;24.48;;;6.50;99.90;;;;;;5110479;27;20230;-76
2023/02/15 02:53:23;;;;;;;36.83;26.20;;;6.50;99.90;;;;;;5109868;27;20329;-77
2023/02/15 02:55:54;;;;;;;39.78;28.02;;;6.50;99.90;;;;;;5110971;27;20226;-78
2023/02/15 02:58:26;;;;;;;36.70;27.27;;;6.50;99.90;;;;;;5110611;27;20214;-75
2023/02/15 03:00:56;;;;;;;42.30;27.20;;;6.50;99.90;;;;;;5110941;27;20688;-75
2023/02/15 03:03:27;;;;;;;44.08;27.60;;;6.40;99.90;;;;;;5110438;27;20273;-75
2023/02/15 03:06:04;;;;;;;41.67;28.33;;;6.40;99.90;;;;;;5110402;27;20907;-76
2023/02/15 03:08:36;;;;;;;42.67;27.23;;;6.40;99.90;;;;;;5101342;27;20655;-78
2023/02/15 03:11:05;;;;;;;37.17;27.13;;;6.30;99.90;;;;;;5111110;27;20223;-79
2023/02/15 03:13:34;;;;;;;35.97;26.30;;;6.40;99.90;;;;;;5110219;27;20218;-76
2023/02/15 03:18:57;;;;;;;39.95;29.90;;;6.30;99.90;;;;;;5111059;27;20225;-76
2023/02/15 03:21:33;;;;;;;42.53;29.20;;;6.30;99.90;;;;;;5110811;27;20294;-79
2023/02/15 03:24:06;;;;;;;44.10;29.55;;;6.20;99.90;;;;;;5110119;27;20218;-79
2023/02/15 03:26:35;;;;;;;45.38;27.92;;;6.20;99.90;;;;;;5109039;27;20219;-76
2023/02/15 03:29:04;;;;;;;45.80;31.77;;;6.20;99.90;;;;;;5110007;27;20219;-79
2023/02/15 03:31:40;;;;;;;39.83;27.55;;;6.10;99.90;;;;;;5109441;27;20226;-76
2023/02/15 03:34:11;;;;;;;50.45;32.05;;;6.10;99.90;;;;;;5109333;27;20230;-75
2023/02/15 03:36:45;;;;;;;55.75;32.78;;;6.20;99.90;;;;;;5109319;27;20219;-78
2023/02/15 03:39:20;;;;;;;56.50;33.88;;;6.20;99.90;;;;;;5109581;27;20214;-76
2023/02/15 03:41:53;;;;;;;53.30;34.70;;;6.10;99.90;;;;;;5109148;27;20222;-78
2023/02/15 03:44:26;;;;;;;49.88;32.83;;;6.10;99.90;;;;;;5109103;27;20229;-76
2023/02/15 03:47:00;;;;;;;46.53;31.40;;;6.10;99.90;;;;;;5095459;28;20223;-76
2023/02/15 03:49:37;;;;;;;52.50;31.38;;;6.10;99.90;;;;;;5095814;28;20231;-76
2023/02/15 03:52:12;;;;;;;53.58;32.92;;;6.10;99.90;;;;;;5096332;28;20593;-78
2023/02/15 03:54:43;;;;;;;48.58;32.53;;;6.00;99.90;;;;;;5095535;28;20223;-79
2023/02/15 04:02:56;;;;;;;51.78;33.00;;;6.00;99.90;;;;;;5095723;28;20228;-76
2023/02/15 04:05:23;;;;;;;49.85;32.28;;;6.00;99.90;;;;;;5095027;28;20251;-76
2023/02/15 04:07:52;;;;;;;54.47;34.50;;;6.00;99.90;;;;;;5095396;28;20253;-76
2023/02/15 04:13:08;;;;;;;48.55;33.05;;;6.00;99.90;;;;;;5083743;27;20220;-76
2023/02/15 04:18:19;;;;;;;52.38;32.38;;;5.90;99.90;;;;;;5095277;28;20246;-76
2023/02/15 04:26:19;;;;;;;51.42;33.35;;;5.80;99.90;;;;;;5094657;28;20364;-76
2023/02/15 04:28:46;;;;;;;48.45;32.90;;;5.80;99.90;;;;;;5095412;28;20552;-78
2023/02/15 04:31:15;;;;;;;51.00;31.63;;;5.70;99.90;;;;;;5093954;28;20231;-77
2023/02/15 04:33:45;;;;;;;50.58;33.05;;;5.70;99.90;;;;;;5094572;28;20337;-77
2023/02/15 04:36:15;;;;;;;51.22;30.65;;;5.70;99.90;;;;;;5094809;28;20264;-79
2023/02/15 04:38:43;;;;;;;48.63;32.38;;;5.70;99.90;;;;;;5095011;28;20302;-76
2023/02/15 04:41:12;;;;;;;53.30;33.80;;;5.70;99.90;;;;;;5094371;28;20227;-77
2023/02/15 04:43:39;;;;;;;46.70;31.15;;;5.70;99.90;;;;;;5095434;28;20224;-80
2023/02/15 04:46:06;;;;;;;59.38;33.45;;;5.70;99.90;;;;;;5091783;28;20620;-77
2023/02/15 04:48:33;;;;;;;42.65;29.58;;;5.60;99.90;;;;;;5102523;28;20234;-76
2023/02/15 04:51:00;;;;;;;49.88;33.38;;;5.60;99.90;;;;;;5094994;28;20581;-77
2023/02/15 04:53:36;;;;;;;55.42;32.78;;;5.50;99.90;;;;;;5094148;28;20235;-77
2023/02/15 04:56:05;;;;;;;48.70;30.58;;;5.50;99.90;;;;;;5094852;28;20218;-80
2023/02/15 04:58:32;;;;;;;51.05;30.90;;;5.50;99.90;;;;;;5093482;28;20227;-77
2023/02/15 05:00:59;;;;;;;52.45;31.75;;;5.50;99.90;;;;;;5085895;28;20285;-79
2023/02/15 05:03:26;;;;;;;58.28;31.17;;;5.50;99.90;;;;;;5094382;28;20224;-78
2023/02/15 05:05:54;;;;;;;45.20;30.15;;;5.50;99.90;;;;;;5094534;28;20223;-75
2023/02/15 05:08:23;;;;;;;50.53;34.40;;;5.50;99.90;;;;;;5093050;28;20281;-78
2023/02/15 05:10:50;;;;;;;47.08;29.65;;;5.40;99.90;;;;;;5094013;28;20653;-79
2023/02/15 05:13:19;;;;;;;47.50;31.70;;;5.40;99.90;;;;;;5094562;28;20578;-76
2023/02/15 05:15:52;;;;;;;50.00;29.88;;;5.30;99.90;;;;;;5093117;28;20224;-79
2023/02/15 05:18:20;;;;;;;49.35;31.80;;;5.30;99.90;;;;;;5095988;28;20622;-79
2023/02/15 05:20:47;;;;;;;51.70;31.20;;;5.30;99.90;;;;;;5098635;28;20220;-78
2023/02/15 05:23:14;;;;;;;49.50;31.90;;;5.20;99.90;;;;;;5095311;28;20223;-76
2023/02/15 05:28:28;;;;;;;48.90;29.70;;;5.20;99.90;;;;;;5099088;28;20237;-78
2023/02/15 05:31:06;;;;;;;51.22;30.45;;;5.20;99.90;;;;;;5087797;28;20231;-78
2023/02/15 05:33:34;;;;;;;46.30;30.42;;;5.20;99.90;;;;;;5093991;28;20242;-79
2023/02/15 05:36:02;;;;;;;53.13;31.88;;;5.20;99.90;;;;;;5094307;28;20660;-78
2023/02/15 05:38:29;;;;;;;47.67;31.65;;;5.10;99.90;;;;;;5093349;28;20234;-78
2023/02/15 05:40:56;;;;;;;47.83;30.25;;;5.10;99.90;;;;;;5093906;28;20289;-78
2023/02/15 05:43:24;;;;;;;44.45;29.23;;;5.00;99.90;;;;;;5092906;28;20227;-78
2023/02/15 05:45:55;;;;;;;49.53;32.83;;;4.90;99.90;;;;;;5093136;28;20288;-79
2023/02/15 05:48:24;;;;;;;53.15;31.15;;;4.90;99.90;;;;;;5093484;28;20526;-79
2023/02/15 05:50:58;;;;;;;50.30;30.98;;;4.90;99.90;;;;;;5093283;28;20231;-76
2023/02/15 05:53:26;;;;;;;52.15;32.88;;;4.80;99.90;;;;;;5094050;28;20222;-76
2023/02/15 05:55:53;;;;;;;50.58;30.73;;;4.80;99.90;;;;;;5092881;28;20223;-79
2023/02/15 05:58:21;;;;;;;47.15;30.23;;;4.80;99.90;;;;;;5092901;27;20621;-78
2023/02/15 06:00:48;;;;;;;55.60;32.13;;;4.80;99.90;;;;;;5092649;28;20235;-75
2023/02/15 06:03:29;;;;;;;52.90;32.85;;;4.70;99.90;;;;;;5093640;28;20288;-79
2023/02/15 06:06:02;;;;;;;61.20;32.15;;;4.70;99.90;;;;;;5093199;28;20226;-79
2023/02/15 06:08:30;;;;;;;54.13;29.88;;;4.70;99.90;;;;;;5090338;28;20223;-80
2023/02/15 06:10:57;;;;;;;53.10;34.85;;;4.70;99.90;;;;;;5093163;28;20238;-76
2023/02/15 06:13:24;;;;;;;56.35;33.15;;;4.60;99.90;;;;;;5093489;28;20227;-76
2023/02/15 06:15:54;;;;;;;49.67;30.45;;;4.60;99.90;;;;;;5092727;28;20238;-79
2023/02/15 06:18:23;;;;;;;53.38;33.40;;;4.60;99.90;;;;;;5092659;28;20231;-78
2023/02/15 06:20:53;;;;;;;58.80;33.75;;;4.60;99.90;;;;;;5092569;28;20230;-78
2023/02/15 06:23:20;;;;;;;52.30;32.00;;;4.60;99.90;;;;;;5093209;28;20314;-78
2023/02/15 06:25:47;;;;;;;55.17;32.72;;;4.60;99.90;;;;;;5092492;28;20231;-76
2023/02/15 06:28:14;;;;;;;51.67;30.67;;;4.60;99.90;;;;;;5093266;28;20677;-80
2023/02/15 06:30:41;;;;;;;53.05;32.30;;;4.60;99.90;;;;;;5092331;28;20231;-76
2023/02/15 06:33:08;;;;;;;53.50;30.50;;;4.60;99.90;;;;;;5087521;28;20542;-79
2023/02/15 06:35:35;;;;;;;57.63;32.42;;;4.50;99.90;;;;;;5104248;28;20251;-79
2023/02/15 06:38:04;;;;;;;59.72;35.10;;;4.50;99.90;;;;;;5092740;28;20280;-76
2023/02/15 06:40:32;;;;;;;51.15;30.70;;;4.50;99.90;;;;;;5092365;28;20525;-77
2023/02/15 06:43:02;;;;;;;63.60;35.00;;;4.50;99.90;;;;;;5092125;28;20345;-75
2023/02/15 06:45:29;;;;;;;61.72;33.53;;;4.50;99.90;;;;;;5091718;28;20227;-75
2023/02/15 06:47:59;;;;;;;66.00;35.05;;;4.50;99.90;;;;;;5091589;28;20223;-77
2023/02/15 06:50:26;;;;;;;59.03;32.85;;;4.50;99.90;;;;;;5092993;28;20227;-77
2023/02/15 06:52:57;;;;;;;59.10;34.33;;;4.50;99.90;;;;;;5092283;28;20223;-77
2023/02/15 06:55:25;;;;;;;66.53;32.63;;;4.40;99.90;;;;;;5092666;28;20750;-80
2023/02/15 06:57:52;;;;;;;55.85;34.40;;;4.40;99.90;;;;;;5092175;28;20746;-80
2023/02/15 07:00:21;;;;;;;56.28;31.65;;;4.40;99.90;;;;;;5092295;28;20280;-80
2023/02/15 07:02:49;;;;;;;67.45;36.42;;;4.50;99.90;;;;;;5091945;28;20326;-80
2023/02/15 07:05:16;;;;;;;60.08;34.95;;;4.50;99.90;;;;;;5092457;28;20223;-76
2023/02/15 07:07:43;;;;;;;67.45;35.15;;;4.50;99.90;;;;;;5091539;28;20247;-77
2023/02/15 07:10:10;;;;;;;71.28;37.47;;;4.40;99.90;;;;;;5091840;28;20245;-80
2023/02/15 07:12:49;;;;;;;73.82;35.60;;;4.40;99.90;;;;;;5092725;28;20227;-79
2023/02/15 07:15:20;;;;;;;66.45;34.38;;;4.30;99.90;;;;;;5093180;28;20351;-76
2023/02/15 07:17:47;;;;;;;80.40;39.72;;;4.30;99.90;;;;;;5092894;28;20227;-80
2023/02/15 07:20:17;;;;;;;64.50;37.10;;;4.30;99.90;;;;;;5093567;28;20250;-77
2023/02/15 07:22:44;;;;;;;68.82;38.58;;;4.30;99.90;;;;;;5095231;28;20219;-80
2023/02/15 07:25:12;;;;;;;68.82;38.85;;;4.30;99.90;;;;;;5095580;28;20312;-80
2023/02/15 07:27:42;;;;;;;71.82;38.40;;;4.40;99.90;;;;;;5095610;27;20239;-80
2023/02/15 07:30:12;;;;;;;79.15;38.75;;;4.30;99.90;;;;;;5091649;28;20640;-80
2023/02/15 07:33:22;;;;;;;69.32;36.88;;;4.30;99.90;;;;;;5104328;28;20710;-80
2023/02/15 07:35:27;;;;;;;68.15;39.97;;;4.30;99.90;;;;;;5095041;28;20250;-77
2023/02/15 07:37:54;;;;;;;71.18;36.72;;;4.30;99.90;;;;;;5095188;28;20223;-76
2023/02/15 07:40:23;;;;;;;74.65;37.65;;;4.40;99.90;;;;;;5094675;28;20223;-76
2023/02/15 07:42:54;;;;;;;69.88;38.90;;;4.30;99.90;;;;;;5095454;28;20230;-80
2023/02/15 07:45:22;;;;;;;71.80;36.95;;;4.40;99.90;;;;;;5096023;28;20230;-79
2023/02/15 07:47:49;;;;;;;70.13;39.28;;;4.50;99.90;;;;;;5094976;28;20234;-78
2023/02/15 07:50:16;;;;;;;65.18;39.50;;;4.40;99.90;;;;;;5095136;28;20227;-76
2023/02/15 07:52:46;;;;;;;71.32;37.50;;;4.50;99.90;;;;;;5094930;28;20233;-80
2023/02/15 07:55:13;;;;;;;68.18;35.75;;;4.50;99.90;;;;;;5086643;28;20275;-80
2023/02/15 07:57:46;;;;;;;73.97;38.17;;;4.50;99.90;;;;;;5086179;28;20223;-80
2023/02/15 08:00:19;;;;;;;66.15;36.13;;;4.60;99.90;;;;;;5095210;28;20223;-79
2023/02/15 08:03:12;;;;;;;80.32;37.47;;;4.60;99.90;;;;;;5094861;28;20227;-80
2023/02/15 08:05:43;;;;;;;63.20;35.22;;;4.50;99.90;;;;;;5094408;28;20749;-80
2023/02/15 08:08:29;;;;;;;75.85;36.95;;;4.60;99.90;;;;;;5095586;28;20272;-77
2023/02/15 08:13:54;;;;;;;69.28;38.15;;;4.60;99.90;;;;;;5094472;27;20234;-79
2023/02/15 08:16:26;;;;;;;65.97;36.47;;;4.70;99.90;;;;;;5095410;28;20227;-75
2023/02/15 08:18:53;;;;;;;54.20;33.97;;;4.70;99.90;;;;;;5094576;27;20292;-75
2023/02/15 08:21:26;;;;;;;54.88;33.83;;;4.70;99.90;;;;;;5095098;28;20242;-75
2023/02/15 08:23:54;;;;;;;50.00;31.67;;;4.70;99.90;;;;;;5094362;28;20227;-75
2023/02/15 08:26:22;;;;;;;55.88;33.65;;;4.80;99.90;;;;;;5095265;28;20231;-75
2023/02/15 08:28:50;;;;;;;50.92;30.25;;;4.80;99.90;;;;;;5094684;28;20696;-78
2023/02/15 08:31:17;;;;;;;58.05;29.15;;;4.80;99.90;;;;;;5095008;28;20309;-78
2023/02/15 08:33:47;;;;;;;51.67;31.48;;;4.80;99.90;;;;;;5094654;28;20696;-75
2023/02/15 08:36:19;;;;;;;54.08;32.67;;;4.80;99.90;;;;;;5094382;28;20239;-79
2023/02/15 08:38:46;;;;;;;52.45;32.70;;;4.80;99.90;;;;;;5094256;28;20215;-79
2023/02/15 08:41:16;;;;;;;55.10;32.70;;;4.80;99.90;;;;;;5094804;28;20300;-75
2023/02/15 08:43:46;;;;;;;58.40;33.15;;;4.80;99.90;;;;;;5093831;28;20219;-79
2023/02/15 08:46:15;;;;;;;63.30;35.75;;;4.80;99.90;;;;;;5094387;28;20284;-76
2023/02/15 08:48:44;;;;;;;60.00;34.42;;;4.90;99.90;;;;;;5094738;28;20688;-76
2023/02/15 08:51:15;;;;;;;61.47;34.70;;;4.90;99.90;;;;;;5094494;28;20227;-75
2023/02/15 08:53:45;;;;;;;49.25;29.73;;;4.90;99.90;;;;;;5094106;28;20223;-76
2023/02/15 08:56:14;;;;;;;53.40;32.03;;;4.80;99.90;;;;;;5095020;27;20547;-78
2023/02/15 08:58:41;;;;;;;54.10;31.75;;;4.80;99.90;;;;;;5094252;28;20538;-76
2023/02/15 09:01:18;;;;;;;47.00;28.42;;;4.90;99.90;;;;;;5093809;28;20720;-75
2023/02/15 09:03:53;;;;;;;54.83;28.70;;;4.90;99.90;;;;;;5092520;28;20236;-76
2023/02/15 09:06:26;;;;;;;48.83;28.85;;;4.90;99.90;;;;;;5100885;28;20219;-75
2023/02/15 09:08:54;;;;;;;43.10;27.90;;;4.80;99.90;;;;;;5094425;28;20241;-75
2023/02/15 09:11:23;;;;;;;53.95;29.27;;;4.90;99.90;;;;;;5093964;28;20223;-76
2023/02/15 09:13:52;;;;;;;47.15;29.00;;;4.90;99.90;;;;;;5094396;28;20676;-76
2023/02/15 09:16:20;;;;;;;41.33;26.27;;;4.90;99.90;;;;;;5093451;28;20223;-78
2023/02/15 09:18:47;;;;;;;46.63;28.55;;;5.00;99.90;;;;;;5094198;28;20219;-78
2023/02/15 09:21:17;;;;;;;42.80;28.08;;;5.00;99.90;;;;;;5093465;28;20227;-78
2023/02/15 09:27:38;;;;;;;38.65;24.20;;;5.10;99.90;;;;;;4945118;28;20231;-76
2023/02/15 09:30:06;;;;;;;41.97;26.00;;;5.10;99.90;;;;;;5037297;28;20264;-76
2023/02/15 09:32:33;;;;;;;43.30;27.45;;;5.10;99.90;;;;;;5094035;28;20304;-76
2023/02/15 09:35:00;;;;;;;43.30;29.10;;;5.20;99.90;;;;;;5093539;28;20215;-76
2023/02/15 09:37:27;;;;;;;45.33;28.23;;;5.20;99.90;;;;;;5094058;28;20237;-76
2023/02/15 09:39:55;;;;;;;42.60;26.70;;;5.20;99.90;;;;;;5093822;28;20223;-79
2023/02/15 09:43:19;;;;;;;43.33;25.63;;;5.30;99.90;;;;;;5093048;28;20314;-79
2023/02/15 09:46:04;;;;;;;37.67;26.02;;;5.40;99.90;;;;;;5070008;28;20227;-77
2023/02/15 09:48:45;;;;;;;36.13;23.65;;;5.50;99.90;;;;;;5093801;28;20231;-79
2023/02/15 09:51:44;;;;;;;34.42;24.88;;;5.60;99.90;;;;;;5093409;28;20228;-79
2023/02/15 09:54:23;;;;;;;33.17;21.92;;;5.60;99.90;;;;;;5092365;28;20223;-79
2023/02/15 09:56:56;;;;;;;37.42;24.15;;;5.60;99.90;;;;;;5093388;28;20227;-79
2023/02/15 09:59:34;;;;;;;35.15;24.23;;;5.60;99.90;;;;;;5093951;28;20227;-79
2023/02/15 10:02:17;;;;;;;36.63;25.10;;;5.70;99.90;;;;;;5093087;28;20219;-78
2023/02/15 10:05:00;;;;;;;38.30;23.55;;;5.70;99.90;;;;;;5093240;28;20219;-76
2023/02/15 10:07:48;;;;;;;33.88;23.42;;;5.80;99.90;;;;;;5094705;28;20704;-78
2023/02/15 10:10:28;;;;;;;33.90;23.30;;;5.90;99.90;;;;;;5095444;28;20231;-80
2023/02/15 10:13:09;;;;;;;37.13;24.75;;;5.90;99.90;;;;;;5095376;28;20549;-80
2023/02/15 10:15:52;;;;;;;36.97;22.80;;;6.00;99.90;;;;;;5093551;28;20219;-79
2023/02/15 10:18:51;;;;;;;37.50;25.73;;;6.00;99.90;;;;;;5093078;28;20219;-77
2023/02/15 10:21:30;;;;;;;39.00;26.08;;;6.00;99.90;;;;;;5093274;28;20559;-77
2023/02/15 10:24:24;;;;;;;34.63;24.90;;;6.00;99.90;;;;;;5094487;28;20592;-79
2023/02/15 10:26:54;;;;;;;37.42;26.48;;;6.10;99.90;;;;;;5094041;28;20215;-79
2023/02/15 10:29:35;;;;;;;37.88;27.23;;;6.10;99.90;;;;;;5092830;28;20227;-79
2023/02/15 10:32:23;;;;;;;32.00;22.85;;;6.10;99.90;;;;;;5093519;28;20234;-79
2023/02/15 10:34:54;;;;;;;36.33;21.85;;;6.10;99.90;;;;;;5093335;28;20223;-76
2023/02/15 10:37:42;;;;;;;35.53;24.75;;;6.20;99.90;;;;;;5092667;28;20238;-78
2023/02/15 10:40:18;;;;;;;35.10;25.17;;;6.20;99.90;;;;;;5092554;28;20215;-79
2023/02/15 10:43:04;;;;;;;33.38;24.00;;;6.30;99.90;;;;;;5093562;28;20230;-78
2023/02/15 10:45:40;;;;;;;35.67;24.15;;;6.30;99.90;;;;;;5092800;28;20298;-75
2023/02/15 10:48:27;;;;;;;38.75;26.52;;;6.40;99.90;;;;;;5091318;28;20295;-76
2023/02/15 10:51:02;;;;;;;34.78;25.27;;;6.40;99.90;;;;;;5092788;28;20250;-76
2023/02/15 10:54:02;;;;;;;33.00;24.30;;;6.50;99.90;;;;;;5091808;28;20226;-77
2023/02/15 10:56:38;;;;;;;39.50;26.30;;;6.50;99.90;;;;;;5095285;28;20688;-75
2023/02/15 10:59:23;;;;;;;37.15;24.77;;;6.50;99.90;;;;;;5097534;28;20229;-76
2023/02/15 11:01:57;;;;;;;31.75;23.02;;;6.60;99.90;;;;;;5096332;28;20223;-76
2023/02/15 11:04:43;;;;;;;36.10;25.65;;;6.70;99.90;;;;;;5088656;28;20665;-75
2023/02/15 11:07:17;;;;;;;36.70;23.25;;;6.70;99.90;;;;;;5065451;28;20219;-79
2023/02/15 11:09:53;;;;;;;36.65;25.92;;;6.80;99.90;;;;;;5091456;28;20280;-78
2023/02/15 11:12:23;;;;;;;31.75;21.80;;;6.90;99.90;;;;;;5090203;28;20264;-76
2023/02/15 11:14:56;;;;;;;35.88;23.30;;;6.90;99.90;;;;;;5090862;28;20219;-76
2023/02/15 11:17:27;;;;;;;37.60;23.80;;;7.00;99.90;;;;;;5081615;28;20521;-76
2023/02/15 11:20:04;;;;;;;26.85;21.33;;;7.00;99.90;;;;;;5083838;28;20238;-76
2023/02/15 11:22:34;;;;;;;39.90;26.38;;;7.10;99.90;;;;;;5076094;28;21316;-76
2023/02/15 11:25:15;;;;;;;32.28;24.85;;;7.10;99.90;;;;;;5080743;28;20505;-79
2023/02/15 11:27:44;;;;;;;38.20;24.63;;;7.20;99.90;;;;;;5080844;28;20255;-78
2023/02/15 11:30:15;;;;;;;34.40;23.70;;;7.20;99.90;;;;;;5080157;28;20634;-79
2023/02/15 11:32:49;;;;;;;34.17;23.08;;;7.30;99.90;;;;;;5082742;28;20227;-78
2023/02/15 11:35:25;;;;;;;37.83;24.52;;;7.30;99.90;;;;;;5082448;28;20223;-75
2023/02/15 11:37:58;;;;;;;33.83;26.42;;;7.40;99.90;;;;;;5098468;28;20233;-79
2023/02/15 11:40:29;;;;;;;33.17;22.17;;;7.40;99.90;;;;;;5091636;28;20220;-79
2023/02/15 11:42:59;;;;;;;34.03;24.25;;;7.40;99.90;;;;;;5089482;28;20306;-76
2023/02/15 11:45:29;;;;;;;31.33;23.33;;;7.50;99.90;;;;;;5081847;28;20216;-78
2023/02/15 11:47:58;;;;;;;33.75;24.17;;;7.50;99.90;;;;;;5070375;28;20223;-76
2023/02/15 11:50:29;;;;;;;29.20;21.45;;;7.60;99.90;;;;;;5084186;28;20220;-76
2023/02/15 11:53:00;;;;;;;32.75;24.25;;;7.60;99.90;;;;;;5075974;28;20235;-76
2023/02/15 11:55:29;;;;;;;36.92;24.10;;;7.70;99.90;;;;;;5082588;28;20228;-78
2023/02/15 11:58:03;;;;;;;32.60;21.75;;;7.70;99.90;;;;;;5076539;28;20324;-79
2023/02/15 12:00:39;;;;;;;30.80;23.27;;;7.80;99.90;;;;;;5067542;28;20231;-78
2023/02/15 12:03:15;;;;;;;30.55;22.90;;;7.90;99.90;;;;;;5083849;28;20226;-79
2023/02/15 12:05:48;;;;;;;33.50;23.67;;;7.90;99.90;;;;;;5082952;28;20228;-79
2023/02/15 12:08:18;;;;;;;31.67;22.33;;;8.00;99.90;;;;;;5074845;28;20229;-76
2023/02/15 12:10:59;;;;;;;29.88;22.48;;;8.00;99.90;;;;;;5063549;28;20219;-79
2023/02/15 12:13:26;;;;;;;27.90;20.58;;;8.10;99.90;;;;;;5074386;28;20227;-79
2023/02/15 12:16:13;;;;;;;25.63;20.17;;;8.20;99.90;;;;;;5082892;28;20211;-80
2023/02/15 12:18:44;;;;;;;32.22;23.10;;;8.20;99.90;;;;;;5093504;28;20224;-77
2023/02/15 12:21:15;;;;;;;28.33;21.52;;;8.30;99.90;;;;;;5085112;28;20388;-78
2023/02/15 12:23:49;;;;;;;29.90;22.17;;;8.30;99.90;;;;;;5094397;28;20219;-80
2023/02/15 12:26:24;;;;;;;29.58;21.80;;;8.40;99.90;;;;;;5095418;28;20647;-76
2023/02/15 12:28:54;;;;;;;23.67;18.77;;;8.40;99.90;;;;;;5082754;27;20593;-76
2023/02/15 12:31:28;;;;;;;34.28;25.63;;;8.50;99.90;;;;;;5077054;28;20254;-76
2023/02/15 12:33:58;;;;;;;25.70;20.23;;;8.60;99.90;;;;;;5076285;28;20227;-81
2023/02/15 12:36:28;;;;;;;28.48;21.30;;;8.60;99.90;;;;;;5076154;28;20236;-79
2023/02/15 12:39:20;;;;;;;28.63;20.25;;;8.70;99.90;;;;;;5081801;27;20216;-75
2023/02/15 12:41:59;;;;;;;30.73;22.90;;;8.70;99.90;;;;;;5076292;28;20242;-76
2023/02/15 12:44:28;;;;;;;26.30;21.15;;;8.80;99.90;;;;;;5074748;28;20265;-76
2023/02/15 12:47:01;;;;;;;25.58;19.58;;;8.80;99.90;;;;;;5078783;28;20239;-76
2023/02/15 12:49:29;;;;;;;26.35;19.80;;;8.90;99.90;;;;;;5077680;28;20296;-79
2023/02/15 12:52:25;;;;;;;22.63;19.25;;;8.90;99.90;;;;;;5072568;28;20224;-76
2023/02/15 12:54:55;;;;;;;24.40;18.25;;;9.00;99.90;;;;;;5074418;28;20237;-76
2023/02/15 12:57:30;;;;;;;28.90;20.80;;;9.00;99.90;;;;;;5079564;28;20219;-76
2023/02/15 13:00:05;;;;;;;26.17;20.90;;;9.10;99.90;;;;;;5086962;28;20233;-79
2023/02/15 13:02:43;;;;;;;32.97;20.77;;;9.10;99.90;;;;;;5081516;28;20272;-76
2023/02/15 13:05:23;;;;;;;30.27;22.10;;;9.10;99.90;;;;;;5095069;28;20268;-78
2023/02/15 13:08:04;;;;;;;26.65;18.63;;;9.20;99.90;;;;;;5084872;28;20314;-75
2023/02/15 13:10:36;;;;;;;28.70;20.73;;;9.20;99.90;;;;;;5075784;28;20228;-79
2023/02/15 13:13:11;;;;;;;22.00;16.95;;;9.30;99.90;;;;;;5073694;28;20230;-77
2023/02/15 13:15:45;;;;;;;20.98;17.27;;;9.30;99.90;;;;;;5078253;28;20246;-80
2023/02/15 13:18:17;;;;;;;24.63;19.58;;;9.40;99.90;;;;;;5092172;28;20220;-77
2023/02/15 13:20:47;;;;;;;29.95;21.45;;;9.50;99.90;;;;;;5091740;28;20231;-80
2023/02/15 13:23:27;;;;;;;29.25;20.25;;;9.40;99.90;;;;;;5094925;28;20227;-80
2023/02/15 13:26:08;;;;;;;28.10;19.33;;;9.50;99.90;;;;;;5092891;28;20223;-80
2023/02/15 13:28:41;;;;;;;24.85;19.63;;;9.50;99.90;;;;;;5090769;28;20222;-80
2023/02/15 13:31:14;;;;;;;23.48;17.45;;;9.60;99.90;;;;;;5099654;28;20299;-80
2023/02/15 13:33:45;;;;;;;21.45;17.65;;;9.70;99.90;;;;;;5093458;28;20304;-80